createdAt,value
2022-10-24T00:01:23.216Z,14.80
2022-10-24T00:03:50.631Z,14.86
2022-10-24T00:06:19.067Z,14.86
2022-10-24T00:08:46.652Z,14.88
2022-10-24T00:11:25.982Z,14.89
2022-10-24T00:13:55.676Z,14.91
2022-10-24T00:16:22.924Z,14.90
2022-10-24T00:18:49.884Z,14.90
2022-10-24T00:21:17.119Z,14.88
2022-10-24T00:23:44.285Z,14.88
2022-10-24T00:26:11.832Z,14.87
2022-10-24T00:28:39.074Z,14.84
2022-10-24T00:31:07.962Z,14.84
2022-10-24T00:33:35.303Z,14.79
2022-10-24T00:36:02.230Z,14.80
2022-10-24T00:38:29.146Z,14.77
2022-10-24T00:40:56.076Z,14.76
2022-10-24T00:43:26.213Z,14.74
2022-10-24T00:45:58.189Z,14.71
2022-10-24T00:48:32.168Z,14.73
2022-10-24T00:51:24.590Z,14.68
2022-10-24T00:54:03.324Z,14.72
2022-10-24T00:56:35.795Z,14.69
2022-10-24T00:59:05.916Z,14.75
2022-10-24T01:01:34.294Z,14.81
2022-10-24T01:04:01.879Z,14.77
2022-10-24T01:07:15.331Z,14.81
2022-10-24T01:10:52.873Z,14.83
2022-10-24T01:13:31.301Z,14.80
2022-10-24T01:16:24.187Z,14.77
2022-10-24T01:19:08.072Z,14.78
2022-10-24T01:21:41.578Z,14.76
2022-10-24T01:24:49.882Z,14.85
2022-10-24T01:27:43.337Z,14.80
2022-10-24T01:30:13.415Z,14.79
2022-10-24T01:33:05.973Z,14.81
2022-10-24T01:36:02.008Z,14.82
2022-10-24T01:38:39.148Z,14.82
2022-10-24T01:41:17.756Z,14.85
2022-10-24T01:44:02.321Z,14.85
2022-10-24T01:46:41.512Z,14.83
2022-10-24T01:49:19.477Z,14.79
2022-10-24T01:51:51.339Z,14.78
2022-10-24T01:54:18.542Z,14.74
2022-10-24T01:56:45.632Z,14.79
2022-10-24T01:59:28.292Z,14.78
2022-10-24T02:02:12.655Z,14.83
2022-10-24T02:04:48.739Z,14.78
2022-10-24T02:07:18.568Z,14.81
2022-10-24T02:09:49.598Z,14.81
2022-10-24T02:12:18.964Z,14.82
2022-10-24T02:14:58.605Z,14.85
2022-10-24T02:17:26.058Z,14.87
2022-10-24T02:19:53.990Z,14.88
2022-10-24T02:22:54.321Z,14.96
2022-10-24T02:25:30.545Z,15.08
2022-10-24T02:28:11.663Z,14.97
2022-10-24T02:30:50.545Z,14.91
2022-10-24T02:33:18.731Z,14.88
2022-10-24T02:35:48.322Z,14.91
2022-10-24T02:38:27.093Z,14.87
2022-10-24T02:40:55.744Z,14.86
2022-10-24T02:43:23.323Z,14.82
2022-10-24T02:45:54.121Z,14.78
2022-10-24T02:48:28.682Z,14.76
2022-10-24T02:50:55.700Z,14.77
2022-10-24T02:53:25.679Z,14.73
2022-10-24T02:55:52.952Z,14.70
2022-10-24T02:58:20.183Z,14.68
2022-10-24T03:00:47.179Z,14.64
2022-10-24T03:03:14.254Z,14.65
2022-10-24T03:05:41.146Z,14.72
2022-10-24T03:08:08.076Z,14.64
2022-10-24T03:10:35.071Z,14.64
2022-10-24T03:13:03.550Z,14.67
2022-10-24T03:15:30.802Z,14.61
2022-10-24T03:17:57.760Z,14.58
2022-10-24T03:20:24.934Z,14.55
2022-10-24T03:22:52.151Z,14.53
2022-10-24T03:25:19.074Z,14.53
2022-10-24T03:27:46.293Z,14.49
2022-10-24T03:30:13.683Z,14.52
2022-10-24T03:32:40.590Z,14.47
2022-10-24T03:35:11.680Z,14.50
2022-10-24T03:37:41.306Z,14.44
2022-10-24T03:40:10.013Z,14.42
2022-10-24T03:42:36.994Z,14.43
2022-10-24T03:45:04.518Z,14.40
2022-10-24T03:47:31.445Z,14.38
2022-10-24T03:49:58.315Z,14.39
2022-10-24T03:52:25.307Z,14.42
2022-10-24T03:54:52.179Z,14.52
2022-10-24T03:57:19.092Z,14.56
2022-10-24T03:59:46.124Z,14.49
2022-10-24T04:02:13.939Z,14.51
2022-10-24T04:04:41.955Z,14.51
2022-10-24T04:07:09.024Z,14.55
2022-10-24T04:09:36.035Z,14.56
2022-10-24T04:12:02.984Z,14.65
2022-10-24T04:14:29.871Z,14.67
2022-10-24T04:16:56.794Z,14.69
2022-10-24T04:19:23.909Z,14.65
2022-10-24T04:21:50.939Z,14.60
2022-10-24T04:24:17.888Z,14.67
2022-10-24T04:26:44.873Z,14.72
2022-10-24T04:29:11.927Z,14.85
2022-10-24T04:31:38.835Z,14.70
2022-10-24T04:34:06.192Z,14.74
2022-10-24T04:36:34.540Z,14.69
2022-10-24T04:39:01.714Z,14.74
2022-10-24T04:41:28.748Z,14.72
2022-10-24T04:43:55.979Z,14.73
2022-10-24T04:46:23.150Z,14.82
2022-10-24T04:48:50.090Z,14.79
2022-10-24T04:51:20.019Z,14.88
2022-10-24T04:53:50.465Z,14.83
2022-10-24T04:56:18.864Z,14.91
2022-10-24T04:58:45.789Z,14.91
2022-10-24T05:01:12.708Z,14.93
2022-10-24T05:03:39.611Z,14.90
2022-10-24T05:06:06.749Z,14.91
2022-10-24T05:08:33.788Z,14.89
2022-10-24T05:11:00.868Z,14.91
2022-10-24T05:13:29.735Z,14.89
2022-10-24T05:15:57.659Z,14.90
2022-10-24T05:18:24.587Z,14.91
2022-10-24T05:20:51.461Z,14.89
2022-10-24T05:23:18.372Z,14.95
2022-10-24T05:25:45.271Z,14.95
2022-10-24T05:28:12.139Z,14.89
2022-10-24T05:30:39.010Z,14.98
2022-10-24T05:33:05.944Z,14.93
2022-10-24T05:35:32.831Z,14.98
2022-10-24T05:37:59.729Z,15.02
2022-10-24T05:40:26.735Z,15.02
2022-10-24T05:42:53.692Z,15.02
2022-10-24T05:45:21.110Z,15.01
2022-10-24T05:47:48.265Z,15.04
2022-10-24T05:50:16.219Z,15.01
2022-10-24T05:52:46.248Z,15.03
2022-10-24T05:55:17.925Z,15.08
2022-10-24T05:57:45.966Z,15.08
2022-10-24T06:00:15.458Z,15.06
2022-10-24T06:02:43.313Z,15.04
2022-10-24T06:05:11.323Z,15.06
2022-10-24T06:07:39.466Z,15.03
2022-10-24T06:10:07.798Z,15.02
2022-10-24T06:12:38.135Z,15.01
2022-10-24T06:15:08.035Z,14.98
2022-10-24T06:17:35.670Z,14.98
2022-10-24T06:20:02.812Z,14.92
2022-10-24T06:22:29.873Z,14.98
2022-10-24T06:24:57.264Z,14.96
2022-10-24T06:27:24.776Z,14.95
2022-10-24T06:29:51.680Z,14.99
2022-10-24T06:32:19.013Z,14.99
2022-10-24T06:34:45.917Z,14.97
2022-10-24T06:37:12.969Z,15.12
2022-10-24T06:39:39.842Z,15.07
2022-10-24T06:42:06.766Z,15.11
2022-10-24T06:44:34.001Z,15.20
2022-10-24T06:47:00.875Z,15.14
2022-10-24T06:49:27.843Z,15.11
2022-10-24T06:51:54.790Z,15.19
2022-10-24T06:54:23.212Z,15.22
2022-10-24T06:56:52.135Z,15.25
2022-10-24T06:59:19.585Z,15.17
2022-10-24T07:01:47.139Z,15.11
2022-10-24T07:04:14.140Z,15.15
2022-10-24T07:06:41.818Z,15.10
2022-10-24T07:09:12.953Z,15.08
2022-10-24T07:11:42.525Z,15.17
2022-10-24T07:14:09.725Z,15.13
2022-10-24T07:16:36.990Z,15.08
2022-10-24T07:19:05.751Z,15.15
2022-10-24T07:21:33.926Z,15.16
2022-10-24T07:24:02.095Z,15.14
2022-10-24T07:26:30.283Z,15.23
2022-10-24T07:29:04.110Z,15.39
2022-10-24T07:31:35.060Z,15.36
2022-10-24T07:34:05.511Z,15.43
2022-10-24T07:36:32.568Z,15.43
2022-10-24T07:39:00.513Z,15.47
2022-10-24T07:41:29.580Z,15.53
2022-10-24T07:43:59.612Z,15.49
2022-10-24T07:46:26.640Z,15.49
2022-10-24T07:48:54.309Z,15.52
2022-10-24T07:51:22.103Z,15.52
2022-10-24T07:53:49.837Z,15.57
2022-10-24T07:56:18.297Z,15.57
2022-10-24T07:58:46.804Z,15.62
2022-10-24T08:01:22.305Z,15.62
2022-10-24T08:03:50.079Z,15.67
2022-10-24T08:06:21.776Z,15.60
2022-10-24T08:08:49.429Z,15.62
2022-10-24T08:11:21.720Z,15.62
2022-10-24T08:13:50.114Z,15.61
2022-10-24T08:16:20.845Z,15.56
2022-10-24T08:18:49.379Z,15.59
2022-10-24T08:21:18.886Z,15.62
2022-10-24T08:23:48.773Z,15.65
2022-10-24T08:26:21.356Z,15.65
2022-10-24T08:28:49.048Z,15.65
2022-10-24T08:31:20.942Z,15.68
2022-10-24T08:33:50.746Z,15.69
2022-10-24T08:36:28.720Z,15.73
2022-10-24T08:38:56.148Z,15.76
2022-10-24T08:41:32.730Z,15.81
2022-10-24T08:44:03.313Z,15.79
2022-10-24T08:46:55.246Z,15.79
2022-10-24T08:49:54.472Z,15.79
2022-10-24T08:52:45.262Z,15.79
2022-10-24T08:55:30.983Z,15.81
2022-10-24T08:58:06.141Z,15.85
2022-10-24T09:00:40.730Z,15.88
2022-10-24T09:03:54.553Z,15.88
2022-10-24T09:06:24.407Z,15.94
2022-10-24T09:09:18.315Z,15.95
2022-10-24T09:11:57.403Z,15.89
2022-10-24T09:14:30.252Z,15.89
2022-10-24T09:20:01.598Z,15.79
2022-10-24T09:22:33.319Z,15.80
2022-10-24T09:25:12.161Z,15.76
2022-10-24T09:27:41.574Z,15.84
2022-10-24T09:30:21.127Z,15.89
2022-10-24T09:32:48.784Z,15.89
2022-10-24T09:35:26.593Z,15.85
2022-10-24T09:37:57.359Z,15.81
2022-10-24T09:40:27.109Z,15.84
2022-10-24T09:43:01.050Z,15.79
2022-10-24T09:46:05.855Z,15.74
2022-10-24T09:48:55.816Z,15.65
2022-10-24T09:51:27.421Z,15.66
2022-10-24T09:54:18.787Z,15.50
2022-10-24T09:57:13.044Z,15.48
2022-10-24T10:00:00.319Z,15.48
2022-10-24T10:02:35.555Z,15.38
2022-10-24T10:05:05.547Z,15.43
2022-10-24T10:07:39.010Z,15.50
2022-10-24T10:10:26.682Z,15.61
2022-10-24T10:13:19.932Z,15.73
2022-10-24T10:15:53.601Z,15.81
2022-10-24T10:18:20.407Z,15.91
2022-10-24T10:21:00.954Z,15.99
2022-10-24T10:23:39.264Z,15.99
2022-10-24T10:26:30.396Z,15.97
2022-10-24T10:29:09.366Z,16.04
2022-10-24T10:32:29.496Z,16.47
2022-10-24T10:35:23.092Z,16.73
2022-10-24T10:38:40.713Z,17.01
2022-10-24T10:41:46.021Z,17.04
2022-10-24T10:44:31.890Z,17.07
2022-10-24T10:47:27.647Z,17.23
2022-10-24T10:49:59.032Z,17.71
2022-10-24T10:52:49.948Z,17.63
2022-10-24T10:55:22.528Z,17.35
2022-10-24T10:58:24.009Z,17.23
2022-10-24T11:01:44.546Z,16.96
2022-10-24T11:04:30.972Z,16.87
2022-10-24T11:07:27.760Z,16.61
2022-10-24T11:10:06.204Z,16.59
2022-10-24T11:12:41.173Z,16.42
2022-10-24T11:15:31.353Z,16.28
2022-10-24T11:18:31.566Z,16.36
2022-10-24T11:21:12.701Z,16.41
2022-10-24T11:24:13.590Z,16.43
2022-10-24T11:26:56.815Z,16.46
2022-10-24T11:29:50.880Z,16.59
2022-10-24T11:32:39.592Z,16.60
2022-10-24T11:35:29.656Z,16.55
2022-10-24T11:38:16.715Z,16.41
2022-10-24T11:40:51.677Z,16.37
2022-10-24T11:43:28.855Z,16.31
2022-10-24T11:46:22.464Z,16.10
2022-10-24T11:48:57.777Z,15.94
2022-10-24T11:51:42.170Z,15.94
2022-10-24T11:54:38.457Z,16.01
2022-10-24T11:57:16.206Z,16.04
2022-10-24T11:59:43.431Z,16.00
2022-10-24T12:03:02.799Z,15.95
2022-10-24T12:05:49.839Z,16.05
2022-10-24T12:08:47.839Z,16.06
2022-10-24T12:11:56.241Z,16.05
2022-10-24T12:14:49.935Z,16.07
2022-10-24T12:17:46.370Z,16.01
2022-10-24T12:20:20.189Z,16.05
2022-10-24T12:22:49.195Z,16.03
2022-10-24T12:25:47.228Z,16.10
2022-10-24T12:28:26.234Z,16.00
2022-10-24T12:31:15.216Z,15.89
2022-10-24T12:33:44.286Z,15.89
2022-10-24T12:36:11.576Z,15.88
2022-10-24T12:38:38.393Z,15.87
2022-10-24T12:41:34.212Z,15.92
2022-10-24T12:44:41.203Z,16.02
2022-10-24T12:47:44.226Z,16.15
2022-10-24T12:50:23.238Z,16.13
2022-10-24T12:53:03.409Z,16.15
2022-10-24T12:55:50.499Z,16.05
2022-10-24T12:58:27.821Z,16.00
2022-10-24T13:01:04.860Z,16.00
2022-10-24T13:03:52.904Z,15.94
2022-10-24T13:06:36.220Z,15.98
2022-10-24T13:09:41.625Z,15.92
2022-10-24T13:12:43.029Z,15.81
2022-10-24T13:15:22.165Z,15.79
2022-10-24T13:18:48.603Z,15.75
2022-10-24T13:24:16.171Z,15.55
2022-10-24T13:26:51.258Z,15.52
2022-10-24T13:29:24.142Z,15.46
2022-10-24T13:32:15.354Z,15.35
2022-10-24T13:34:56.027Z,15.43
2022-10-24T13:37:28.397Z,15.46
2022-10-24T13:40:08.971Z,15.49
2022-10-24T13:42:50.825Z,15.49
2022-10-24T13:45:51.863Z,15.54
2022-10-24T13:48:22.407Z,15.56
2022-10-24T13:51:01.704Z,15.60
2022-10-24T13:53:36.064Z,15.52
2022-10-24T13:56:10.769Z,15.50
2022-10-24T13:58:44.276Z,15.51
2022-10-24T14:01:28.527Z,15.41
2022-10-24T14:03:57.411Z,15.39
2022-10-24T14:06:29.019Z,15.36
2022-10-24T14:09:06.897Z,15.40
2022-10-24T14:11:35.205Z,15.34
2022-10-24T14:14:06.015Z,15.36
2022-10-24T14:16:35.558Z,15.39
2022-10-24T14:19:31.751Z,15.37
2022-10-24T14:22:00.213Z,15.43
2022-10-24T14:24:27.191Z,15.43
2022-10-24T14:26:56.761Z,15.37
2022-10-24T14:29:31.781Z,15.33
2022-10-24T14:32:07.846Z,15.33
2022-10-24T14:34:37.641Z,15.36
2022-10-24T14:37:11.624Z,15.33
2022-10-24T14:39:39.976Z,15.34
2022-10-24T14:42:16.131Z,15.31
2022-10-24T14:44:46.221Z,15.31
2022-10-24T14:47:22.354Z,15.34
2022-10-24T14:49:49.571Z,15.35
2022-10-24T14:52:32.220Z,15.36
2022-10-24T14:55:27.635Z,15.42
2022-10-24T14:57:55.226Z,15.40
2022-10-24T15:00:25.692Z,15.36
2022-10-24T15:02:56.989Z,15.40
2022-10-24T15:05:31.868Z,15.42
2022-10-24T15:08:20.976Z,15.38
2022-10-24T15:10:48.980Z,15.39
2022-10-24T15:13:21.874Z,15.36
2022-10-24T15:15:57.868Z,15.37
2022-10-24T15:18:42.120Z,15.31
2022-10-24T15:21:19.617Z,15.32
2022-10-24T15:24:07.196Z,15.32
2022-10-24T15:26:40.873Z,15.32
2022-10-24T15:29:13.655Z,15.37
2022-10-24T15:31:46.902Z,15.38
2022-10-24T15:34:20.196Z,15.38
2022-10-24T15:36:49.864Z,15.36
2022-10-24T15:39:21.422Z,15.35
2022-10-24T15:41:49.020Z,15.36
2022-10-24T15:44:22.398Z,15.33
2022-10-24T15:46:49.775Z,15.31
2022-10-24T15:49:17.044Z,15.29
2022-10-24T15:51:49.886Z,15.27
2022-10-24T15:54:21.314Z,15.23
2022-10-24T15:56:49.328Z,15.23
2022-10-24T15:59:17.310Z,15.20
2022-10-24T16:01:50.284Z,15.10
2022-10-24T16:04:18.334Z,15.05
2022-10-24T16:06:45.253Z,15.00
2022-10-24T16:09:27.601Z,14.94
2022-10-24T16:11:55.312Z,14.91
2022-10-24T16:14:25.786Z,14.86
2022-10-24T16:16:54.820Z,14.85
2022-10-24T16:19:22.003Z,14.87
2022-10-24T16:21:49.224Z,14.78
2022-10-24T16:24:16.205Z,14.74
2022-10-24T16:26:43.111Z,14.70
2022-10-24T16:29:10.391Z,14.64
2022-10-24T16:31:37.687Z,14.60
2022-10-24T16:34:04.694Z,14.54
2022-10-24T16:36:32.625Z,14.54
2022-10-24T16:38:59.529Z,14.48
2022-10-24T16:41:27.003Z,14.46
2022-10-24T16:43:56.563Z,14.37
2022-10-24T16:46:25.593Z,14.40
2022-10-24T16:48:53.205Z,14.36
2022-10-24T16:51:27.273Z,14.32
2022-10-24T16:53:54.207Z,14.30
2022-10-24T16:56:21.095Z,14.25
2022-10-24T16:58:47.986Z,14.25
2022-10-24T17:01:16.587Z,14.15
2022-10-24T17:03:47.044Z,14.18
2022-10-24T17:06:14.653Z,14.17
2022-10-24T17:08:41.739Z,14.14
2022-10-24T17:11:32.337Z,14.13
2022-10-24T17:13:58.118Z,14.09
2022-10-24T17:16:26.038Z,14.03
2022-10-24T17:19:12.106Z,14.01
2022-10-24T17:21:39.462Z,13.95
2022-10-24T17:24:11.467Z,13.91
2022-10-24T17:26:38.764Z,13.85
2022-10-24T17:29:05.911Z,13.84
2022-10-24T17:31:33.016Z,13.80
2022-10-24T17:34:00.247Z,13.78
2022-10-24T17:36:33.505Z,13.75
2022-10-24T17:39:14.451Z,13.73
2022-10-24T17:41:41.966Z,13.68
2022-10-24T17:44:16.916Z,13.60
2022-10-24T17:46:45.349Z,13.57
2022-10-24T17:49:17.761Z,13.51
2022-10-24T17:51:48.899Z,13.48
2022-10-24T17:54:16.200Z,13.40
2022-10-24T17:56:43.551Z,13.36
2022-10-24T17:59:10.517Z,13.31
2022-10-24T18:01:37.564Z,13.28
2022-10-24T18:04:04.996Z,13.27
2022-10-24T18:06:32.561Z,13.25
2022-10-24T18:08:59.549Z,13.22
2022-10-24T18:11:26.816Z,13.23
2022-10-24T18:13:54.061Z,13.20
2022-10-24T18:16:21.576Z,13.22
2022-10-24T18:18:49.489Z,13.21
2022-10-24T18:21:20.445Z,13.19
2022-10-24T18:23:48.511Z,13.20
2022-10-24T18:26:19.134Z,13.22
2022-10-24T18:28:50.415Z,13.24
2022-10-24T18:31:23.598Z,13.24
2022-10-24T18:33:51.169Z,13.29
2022-10-24T18:36:22.860Z,13.29
2022-10-24T18:38:49.958Z,13.32
2022-10-24T18:41:36.300Z,13.37
2022-10-24T18:44:25.564Z,13.43
2022-10-24T18:46:55.457Z,13.44
2022-10-24T18:49:23.206Z,13.46
2022-10-24T18:52:07.183Z,13.48
2022-10-24T18:54:58.447Z,13.46
2022-10-24T18:57:30.549Z,13.49
2022-10-24T19:00:00.744Z,13.52
2022-10-24T19:02:50.143Z,13.54
2022-10-24T19:05:21.315Z,13.50
2022-10-24T19:07:50.075Z,13.52
2022-10-24T19:10:27.104Z,13.54
2022-10-24T19:12:57.252Z,13.55
2022-10-24T19:15:24.787Z,13.55
2022-10-24T19:17:51.886Z,13.53
2022-10-24T19:20:23.309Z,13.55
2022-10-24T19:22:50.878Z,13.46
2022-10-24T19:25:18.107Z,13.47
2022-10-24T19:27:45.282Z,13.48
2022-10-24T19:30:13.398Z,13.47
2022-10-24T19:32:40.349Z,13.44
2022-10-24T19:35:07.715Z,13.41
2022-10-24T19:37:34.667Z,13.40
2022-10-24T19:40:01.558Z,13.37
2022-10-24T19:42:28.451Z,13.37
2022-10-24T19:44:56.423Z,13.35
2022-10-24T19:47:23.395Z,13.33
2022-10-24T19:49:50.379Z,13.33
2022-10-24T19:52:17.537Z,13.32
2022-10-24T19:54:44.764Z,13.26
2022-10-24T19:57:12.500Z,13.23
2022-10-24T19:59:39.472Z,13.19
2022-10-24T20:02:06.614Z,13.14
2022-10-24T20:04:33.524Z,13.12
2022-10-24T20:07:00.378Z,13.08
2022-10-24T20:09:27.234Z,13.04
2022-10-24T20:11:54.122Z,13.00
2022-10-24T20:14:24.327Z,12.96
2022-10-24T20:16:51.708Z,12.90
2022-10-24T20:19:18.779Z,12.88
2022-10-24T20:21:45.644Z,12.87
2022-10-24T20:24:12.891Z,12.83
2022-10-24T20:26:39.834Z,12.82
2022-10-24T20:29:06.780Z,12.81
2022-10-24T20:31:43.044Z,12.83
2022-10-24T20:34:10.066Z,12.81
2022-10-24T20:36:44.366Z,12.84
2022-10-24T20:39:15.939Z,12.80
2022-10-24T20:41:43.174Z,12.78
2022-10-24T20:44:11.509Z,12.78
2022-10-24T20:46:38.451Z,12.82
2022-10-24T20:49:05.477Z,12.80
2022-10-24T20:51:32.444Z,12.74
2022-10-24T20:53:59.380Z,12.76
2022-10-24T20:56:26.625Z,12.78
2022-10-24T20:58:55.476Z,12.82
2022-10-24T21:01:26.245Z,12.83
2022-10-24T21:03:54.782Z,12.79
2022-10-24T21:06:29.681Z,12.78
2022-10-24T21:09:00.571Z,12.79
2022-10-24T21:11:31.175Z,12.78
2022-10-24T21:14:11.322Z,12.79
2022-10-24T21:16:38.502Z,12.78
2022-10-24T21:19:05.412Z,12.80
2022-10-24T21:21:32.738Z,12.80
2022-10-24T21:24:04.340Z,12.83
2022-10-24T21:26:38.442Z,12.82
2022-10-24T21:29:31.530Z,12.85
2022-10-24T21:31:53.964Z,12.85
2022-10-24T21:34:20.827Z,12.86
2022-10-24T21:36:48.493Z,12.83
2022-10-24T21:39:17.136Z,12.84
2022-10-24T21:41:44.732Z,12.83
2022-10-24T21:44:11.818Z,12.83
2022-10-24T21:46:38.965Z,12.83
2022-10-24T21:49:05.862Z,12.80
2022-10-24T21:51:36.499Z,12.78
2022-10-24T21:54:18.500Z,12.77
2022-10-24T21:56:46.000Z,12.76
2022-10-24T21:59:17.540Z,12.73
2022-10-24T22:01:47.613Z,12.70
2022-10-24T22:04:15.855Z,12.69
2022-10-24T22:06:44.180Z,12.70
2022-10-24T22:09:15.788Z,12.65
2022-10-24T22:11:43.311Z,12.69
2022-10-24T22:14:13.644Z,12.65
2022-10-24T22:16:41.894Z,12.60
2022-10-24T22:19:11.661Z,12.61
2022-10-24T22:21:45.397Z,12.60
2022-10-24T22:24:18.202Z,12.59
2022-10-24T22:26:45.679Z,12.59
2022-10-24T22:29:21.107Z,12.56
2022-10-24T22:31:49.208Z,12.53
2022-10-24T22:34:22.879Z,12.52
2022-10-24T22:37:14.560Z,12.51
2022-10-24T22:39:42.045Z,12.52
2022-10-24T22:42:13.580Z,12.52
2022-10-24T22:44:44.222Z,12.50
2022-10-24T22:47:30.420Z,12.51
2022-10-24T22:50:37.669Z,12.51
2022-10-24T22:53:08.880Z,12.52
2022-10-24T22:56:01.335Z,12.51
2022-10-24T22:58:28.712Z,12.52
2022-10-24T23:01:27.644Z,12.51
2022-10-24T23:04:14.119Z,12.51
2022-10-24T23:06:56.930Z,12.48
2022-10-24T23:09:23.864Z,12.49
2022-10-24T23:11:51.243Z,12.49
2022-10-24T23:14:18.581Z,12.46
2022-10-24T23:17:00.747Z,12.46
2022-10-24T23:19:32.836Z,12.46
2022-10-24T23:22:22.265Z,12.49
2022-10-24T23:24:51.172Z,12.53
2022-10-24T23:27:39.579Z,12.59
2022-10-24T23:30:15.768Z,12.63
2022-10-24T23:32:43.459Z,12.64
2022-10-24T23:35:14.013Z,12.66
2022-10-24T23:37:47.379Z,12.70
2022-10-24T23:40:17.229Z,12.74
2022-10-24T23:42:45.895Z,12.76
2022-10-24T23:45:15.594Z,12.82
2022-10-24T23:47:57.827Z,12.82
2022-10-24T23:50:45.488Z,12.87
2022-10-24T23:53:27.307Z,12.88
2022-10-24T23:55:54.612Z,12.91
2022-10-24T23:58:21.671Z,12.93
